createdAt,value
2023-05-17T00:02:24.384Z,99234.22
2023-05-17T00:04:54.480Z,99224.59
2023-05-17T00:07:26.785Z,99203.84
2023-05-17T00:09:56.595Z,99185.69
2023-05-17T00:12:26.313Z,99164.84
2023-05-17T00:14:56.337Z,99157.16
2023-05-17T00:17:26.174Z,99154.78
2023-05-17T00:19:56.063Z,99147.00
2023-05-17T00:22:28.607Z,99154.97
2023-05-17T00:24:58.390Z,99132.31
2023-05-17T00:27:28.169Z,99121.16
2023-05-17T00:29:57.929Z,99099.44
2023-05-17T00:32:27.693Z,99086.41
2023-05-17T00:34:57.503Z,99074.47
2023-05-17T00:37:29.883Z,99052.78
2023-05-17T00:39:59.874Z,99025.66
2023-05-17T00:42:29.668Z,99011.00
2023-05-17T00:44:59.447Z,99008.75
2023-05-17T00:47:29.238Z,98977.28
2023-05-17T00:49:59.118Z,98955.38
2023-05-17T00:52:31.538Z,98917.81
2023-05-17T00:55:01.732Z,98853.16
2023-05-17T00:57:32.282Z,98707.06
2023-05-17T01:00:04.486Z,98686.13
2023-05-17T01:02:34.351Z,98684.53
2023-05-17T01:05:04.914Z,98697.13
2023-05-17T01:07:37.378Z,98725.38
2023-05-17T01:10:08.193Z,98747.44
2023-05-17T01:12:44.791Z,98756.41
2023-05-17T01:15:18.089Z,98672.69
2023-05-17T01:17:53.854Z,98692.09
2023-05-17T01:20:29.049Z,98696.72
2023-05-17T01:23:13.968Z,98704.78
2023-05-17T01:25:54.006Z,98687.44
2023-05-17T01:28:32.717Z,98689.31
2023-05-17T01:31:05.497Z,98700.03
2023-05-17T01:33:35.932Z,98672.16
2023-05-17T01:36:05.806Z,98673.22
2023-05-17T01:38:35.596Z,98687.28
2023-05-17T01:41:09.792Z,98702.34
2023-05-17T01:43:45.295Z,98710.44
2023-05-17T01:46:19.232Z,98722.81
2023-05-17T01:48:53.680Z,98736.88
2023-05-17T01:51:27.087Z,98741.38
2023-05-17T01:54:00.449Z,98744.00
2023-05-17T01:56:31.875Z,98748.50
2023-05-17T01:59:06.114Z,98752.06
2023-05-17T02:01:37.076Z,98753.94
2023-05-17T02:04:07.394Z,98755.84
2023-05-17T02:06:37.293Z,98762.00
2023-05-17T02:09:07.199Z,98773.44
2023-05-17T02:11:37.008Z,98769.13
2023-05-17T02:14:09.351Z,98774.28
2023-05-17T02:16:39.177Z,98775.31
2023-05-17T02:19:09.417Z,98786.94
2023-05-17T02:21:39.108Z,98787.69
2023-05-17T02:24:09.564Z,98789.63
2023-05-17T02:26:42.925Z,98783.66
2023-05-17T02:29:15.319Z,98777.81
2023-05-17T02:31:46.255Z,98779.69
2023-05-17T02:34:16.080Z,98784.22
2023-05-17T02:36:46.162Z,98794.69
2023-05-17T02:39:16.070Z,98785.25
2023-05-17T02:41:45.847Z,98785.59
2023-05-17T02:44:18.190Z,98782.22
2023-05-17T02:46:48.018Z,98793.94
2023-05-17T02:49:17.765Z,98803.56
2023-05-17T02:51:47.632Z,98813.31
2023-05-17T02:54:24.838Z,98806.34
2023-05-17T02:56:54.696Z,98808.44
2023-05-17T02:59:27.285Z,98804.97
2023-05-17T03:01:57.892Z,98807.59
2023-05-17T03:04:27.647Z,98808.53
2023-05-17T03:06:58.500Z,98807.75
2023-05-17T03:09:30.094Z,98813.09
2023-05-17T03:12:00.428Z,98812.25
2023-05-17T03:14:36.523Z,98815.72
2023-05-17T03:17:06.573Z,98810.47
2023-05-17T03:19:39.026Z,98810.47
2023-05-17T03:22:08.889Z,98808.88
2023-05-17T03:24:38.769Z,98808.97
2023-05-17T03:27:09.190Z,98801.09
2023-05-17T03:29:42.044Z,98792.09
2023-05-17T03:32:12.414Z,98804.28
2023-05-17T03:34:42.470Z,98797.19
2023-05-17T03:37:12.225Z,98796.16
2023-05-17T03:39:42.048Z,98798.69
2023-05-17T03:42:11.916Z,98791.56
2023-05-17T03:44:44.541Z,98780.22
2023-05-17T03:47:16.051Z,98768.78
2023-05-17T03:49:46.743Z,98777.34
2023-05-17T03:52:17.140Z,98778.19
2023-05-17T03:54:48.223Z,98772.84
2023-05-17T03:57:19.767Z,98769.19
2023-05-17T03:59:52.195Z,98765.66
2023-05-17T04:02:24.397Z,98760.31
2023-05-17T04:04:54.738Z,98754.88
2023-05-17T04:07:26.112Z,98747.75
2023-05-17T04:09:58.946Z,98752.91
2023-05-17T04:12:31.687Z,98760.69
2023-05-17T04:15:06.931Z,98756.19
2023-05-17T04:17:38.699Z,98757.72
2023-05-17T04:20:09.724Z,98761.81
2023-05-17T04:22:39.612Z,98765.09
2023-05-17T04:25:10.298Z,98766.59
2023-05-17T04:27:41.125Z,98768.19
2023-05-17T04:30:16.207Z,98747.19
2023-05-17T04:32:46.273Z,98747.75
2023-05-17T04:35:16.358Z,98747.56
2023-05-17T04:37:50.036Z,98745.50
2023-05-17T04:40:24.894Z,98745.31
2023-05-17T04:42:54.967Z,98737.25
2023-05-17T04:45:27.978Z,98734.31
2023-05-17T04:47:59.686Z,98723.72
2023-05-17T04:50:30.348Z,98730.59
2023-05-17T04:53:00.197Z,98735.53
2023-05-17T04:55:31.107Z,98730.84
2023-05-17T04:58:01.627Z,98739.47
2023-05-17T05:00:34.535Z,98741.91
2023-05-17T05:03:07.777Z,98733.72
2023-05-17T05:05:39.358Z,98743.97
2023-05-17T05:08:09.568Z,98742.81
2023-05-17T05:10:39.448Z,98753.88
2023-05-17T05:13:09.324Z,98759.75
2023-05-17T05:15:41.880Z,98762.16
2023-05-17T05:18:11.733Z,98769.91
2023-05-17T05:20:41.532Z,98772.34
2023-05-17T05:23:11.999Z,98788.88
2023-05-17T05:25:41.942Z,98796.56
2023-05-17T05:28:12.291Z,98802.53
2023-05-17T05:30:46.122Z,98813.72
2023-05-17T05:33:17.363Z,98826.66
2023-05-17T05:35:48.801Z,98821.22
2023-05-17T05:38:18.688Z,98822.69
2023-05-17T05:40:49.205Z,98818.19
2023-05-17T05:43:19.162Z,98831.25
2023-05-17T05:45:52.377Z,98826.63
2023-05-17T05:48:24.480Z,98823.91
2023-05-17T05:50:55.187Z,98831.78
2023-05-17T05:53:25.159Z,98845.75
2023-05-17T05:55:57.846Z,98856.19
2023-05-17T05:58:28.651Z,98863.03
2023-05-17T06:01:02.100Z,98870.63
2023-05-17T06:03:33.162Z,98879.19
2023-05-17T06:06:03.098Z,98882.34
2023-05-17T06:08:32.887Z,98885.72
2023-05-17T06:11:02.642Z,98902.34
2023-05-17T06:13:32.421Z,98923.41
2023-05-17T06:16:05.913Z,98940.84
2023-05-17T06:18:36.899Z,98934.53
2023-05-17T06:21:07.041Z,98941.22
2023-05-17T06:23:36.829Z,98965.41
2023-05-17T06:26:10.591Z,98995.13
2023-05-17T06:28:40.427Z,99051.00
2023-05-17T06:31:12.790Z,99154.19
2023-05-17T06:33:42.681Z,99232.81
2023-05-17T06:36:12.692Z,99300.88
2023-05-17T06:38:42.495Z,99376.00
2023-05-17T06:41:12.293Z,99463.41
2023-05-17T06:43:42.119Z,99541.03
2023-05-17T06:46:14.402Z,99610.75
2023-05-17T06:48:44.469Z,99654.25
2023-05-17T06:51:14.392Z,99709.06
2023-05-17T06:53:44.123Z,99771.69
2023-05-17T06:56:14.706Z,99831.53
2023-05-17T06:58:44.509Z,99900.94
2023-05-17T07:01:17.120Z,99940.63
2023-05-17T07:03:47.063Z,99955.34
2023-05-17T07:06:16.913Z,99992.06
2023-05-17T07:08:46.756Z,100052.72
2023-05-17T07:11:16.559Z,100123.13
2023-05-17T07:13:46.908Z,100179.44
2023-05-17T07:16:19.317Z,100218.06
2023-05-17T07:18:49.157Z,100247.16
2023-05-17T07:21:18.923Z,100312.84
2023-05-17T07:23:48.710Z,100387.56
2023-05-17T07:26:18.481Z,100429.75
2023-05-17T07:28:48.217Z,100499.47
2023-05-17T07:31:20.833Z,100575.25
2023-05-17T07:33:50.800Z,100605.97
2023-05-17T07:36:20.615Z,100636.97
2023-05-17T07:38:50.463Z,100711.13
2023-05-17T07:41:22.613Z,100723.31
2023-05-17T07:43:52.878Z,100657.03
2023-05-17T07:46:25.282Z,100632.41
2023-05-17T07:48:58.077Z,100671.50
2023-05-17T07:51:28.600Z,100721.56
2023-05-17T07:53:58.343Z,100781.38
2023-05-17T07:56:28.042Z,100826.38
2023-05-17T07:58:58.224Z,100850.56
2023-05-17T08:01:30.633Z,100840.53
2023-05-17T08:04:00.530Z,100840.16
2023-05-17T08:06:30.562Z,100870.72
2023-05-17T08:09:00.484Z,100863.22
2023-05-17T08:11:30.321Z,100856.06
2023-05-17T08:14:00.073Z,100868.97
2023-05-17T08:16:32.484Z,100930.13
2023-05-17T08:19:02.370Z,100966.44
2023-05-17T08:21:32.186Z,100982.19
2023-05-17T08:24:03.400Z,101032.59
2023-05-17T08:26:33.980Z,101046.72
2023-05-17T08:29:04.934Z,101092.91
2023-05-17T08:31:37.380Z,101135.03
2023-05-17T08:34:07.368Z,101131.69
2023-05-17T08:36:37.289Z,101126.06
2023-05-17T08:39:08.664Z,101099.63
2023-05-17T08:41:38.615Z,101176.47
2023-05-17T08:44:08.991Z,101257.59
2023-05-17T08:46:42.204Z,101266.97
2023-05-17T08:49:13.166Z,101301.69
2023-05-17T08:51:43.973Z,101363.22
2023-05-17T08:54:14.408Z,101318.31
2023-05-17T08:56:45.677Z,101569.63
2023-05-17T08:59:15.592Z,101630.00
2023-05-17T09:01:49.783Z,101639.06
2023-05-17T09:04:20.108Z,101647.09
2023-05-17T09:06:50.752Z,101636.63
2023-05-17T09:09:21.455Z,101653.41
2023-05-17T09:11:51.574Z,101668.34
2023-05-17T09:14:21.546Z,101682.47
2023-05-17T09:16:59.824Z,101685.72
2023-05-17T09:19:30.009Z,101674.22
2023-05-17T09:22:03.030Z,101677.56
2023-05-17T09:24:33.445Z,101678.53
2023-05-17T09:27:07.364Z,101685.69
2023-05-17T09:29:38.122Z,101703.50
2023-05-17T09:32:21.074Z,101704.09
2023-05-17T09:34:52.691Z,101706.03
2023-05-17T09:37:23.278Z,101723.66
2023-05-17T09:39:53.028Z,101719.69
2023-05-17T09:42:23.091Z,101728.00
2023-05-17T09:44:54.695Z,101717.44
2023-05-17T09:47:28.948Z,101709.72
2023-05-17T09:50:00.808Z,101701.75
2023-05-17T09:52:32.383Z,101709.28
2023-05-17T09:55:03.328Z,101714.16
2023-05-17T09:57:41.516Z,101728.78
2023-05-17T10:00:13.462Z,101724.09
2023-05-17T10:02:48.055Z,101720.75
2023-05-17T10:05:18.270Z,101720.75
2023-05-17T10:07:49.115Z,101724.22
2023-05-17T10:10:19.527Z,101717.56
2023-05-17T10:12:50.610Z,101721.97
2023-05-17T10:15:20.697Z,101717.16
2023-05-17T10:17:53.716Z,101728.97
2023-05-17T10:20:24.631Z,101735.75
2023-05-17T10:22:55.818Z,101730.88
2023-05-17T10:25:26.755Z,101730.53
2023-05-17T10:27:56.766Z,101723.75
2023-05-17T10:30:26.736Z,101716.91
2023-05-17T10:32:59.543Z,101713.09
2023-05-17T10:35:31.087Z,101706.41
2023-05-17T10:38:01.023Z,101717.41
2023-05-17T10:40:33.056Z,101709.91
2023-05-17T10:43:02.963Z,101711.41
2023-05-17T10:45:32.989Z,101722.25
2023-05-17T10:48:08.562Z,101727.34
2023-05-17T10:50:54.009Z,101734.47
2023-05-17T10:53:30.885Z,101740.47
2023-05-17T10:56:00.975Z,101726.13
2023-05-17T10:58:31.527Z,101731.03
2023-05-17T11:01:01.274Z,101730.47
2023-05-17T11:03:34.743Z,101732.38
2023-05-17T11:06:24.361Z,101725.38
2023-05-17T11:09:11.725Z,101733.13
2023-05-17T11:12:08.031Z,101719.19
2023-05-17T11:14:51.189Z,101735.31
2023-05-17T11:17:22.239Z,101727.72
2023-05-17T11:19:58.831Z,101732.19
2023-05-17T11:22:29.686Z,101732.63
2023-05-17T11:25:00.696Z,101741.97
2023-05-17T11:27:31.624Z,101732.91
2023-05-17T11:30:01.589Z,101720.94
2023-05-17T11:32:32.046Z,101727.69
2023-05-17T11:35:05.572Z,101735.97
2023-05-17T11:37:35.375Z,101732.84
2023-05-17T11:40:07.194Z,101736.38
2023-05-17T11:42:38.367Z,101734.06
2023-05-17T11:45:09.432Z,101728.19
2023-05-17T11:47:42.777Z,101731.16
2023-05-17T11:50:16.678Z,101736.28
2023-05-17T11:52:46.426Z,101742.63
2023-05-17T11:55:17.773Z,101742.31
2023-05-17T11:57:47.977Z,101733.94
2023-05-17T12:00:18.889Z,101741.91
2023-05-17T12:02:52.114Z,101744.59
2023-05-17T12:05:26.443Z,101745.22
2023-05-17T12:07:59.568Z,101744.66
2023-05-17T12:10:34.637Z,101740.94
2023-05-17T12:13:05.106Z,101741.41
2023-05-17T12:15:34.989Z,101740.38
2023-05-17T12:18:04.833Z,101741.22
2023-05-17T12:20:39.132Z,101746.34
2023-05-17T12:23:08.880Z,101751.50
2023-05-17T12:25:38.568Z,101743.59
2023-05-17T12:28:22.882Z,101739.53
2023-05-17T12:30:57.891Z,101735.53
2023-05-17T12:33:27.924Z,101727.53
2023-05-17T12:36:00.450Z,101738.75
2023-05-17T12:38:32.261Z,101741.31
2023-05-17T12:41:03.944Z,101745.09
2023-05-17T12:43:34.619Z,101754.63
2023-05-17T12:46:09.529Z,101750.66
2023-05-17T12:48:40.290Z,101750.44
2023-05-17T12:51:14.708Z,101746.56
2023-05-17T12:53:46.332Z,101740.47
2023-05-17T12:56:19.133Z,101731.34
2023-05-17T12:59:07.147Z,101730.09
2023-05-17T13:01:38.145Z,101734.78
2023-05-17T13:04:08.560Z,101739.03
2023-05-17T13:06:52.065Z,101739.94
2023-05-17T13:09:24.249Z,101747.94
2023-05-17T13:11:54.203Z,101742.00
2023-05-17T13:14:37.237Z,101742.75
2023-05-17T13:17:07.932Z,101752.28
2023-05-17T13:19:38.318Z,101742.25
2023-05-17T13:22:10.920Z,101743.50
2023-05-17T13:24:42.520Z,101745.13
2023-05-17T13:27:12.514Z,101746.19
2023-05-17T13:29:43.808Z,101734.09
2023-05-17T13:32:14.599Z,101725.19
2023-05-17T13:34:44.461Z,101725.19
2023-05-17T13:37:16.845Z,101728.25
2023-05-17T13:39:46.696Z,101730.03
2023-05-17T13:42:16.524Z,101731.63
2023-05-17T13:44:46.277Z,101728.94
2023-05-17T13:47:16.059Z,101727.06
2023-05-17T13:49:45.856Z,101733.06
2023-05-17T13:52:18.788Z,101731.09
2023-05-17T13:54:48.618Z,101731.63
2023-05-17T13:57:18.567Z,101721.53
2023-05-17T13:59:48.305Z,101715.56
2023-05-17T14:02:18.463Z,101714.66
2023-05-17T14:04:48.200Z,101707.22
2023-05-17T14:07:20.736Z,101710.81
2023-05-17T14:09:50.611Z,101708.00
2023-05-17T14:12:20.601Z,101710.41
2023-05-17T14:14:50.358Z,101717.31
2023-05-17T14:17:20.132Z,101712.00
2023-05-17T14:19:50.388Z,101712.91
2023-05-17T14:22:22.764Z,101718.25
2023-05-17T14:24:52.737Z,101718.81
2023-05-17T14:27:22.635Z,101722.78
2023-05-17T14:29:52.432Z,101725.06
2023-05-17T14:32:22.421Z,101717.00
2023-05-17T14:34:52.174Z,101720.50
2023-05-17T14:37:24.575Z,101718.47
2023-05-17T14:40:05.758Z,101719.31
2023-05-17T14:42:36.584Z,101721.50
2023-05-17T14:45:06.643Z,101707.94
2023-05-17T14:47:37.114Z,101712.59
2023-05-17T14:50:08.005Z,101700.72
2023-05-17T14:52:40.513Z,101709.44
2023-05-17T14:55:12.242Z,101714.50
2023-05-17T14:57:42.341Z,101717.44
2023-05-17T15:00:13.744Z,101711.94
2023-05-17T15:02:43.642Z,101720.97
2023-05-17T15:05:13.550Z,101720.75
2023-05-17T15:07:46.004Z,101722.94
2023-05-17T15:10:16.115Z,101723.09
2023-05-17T15:12:45.849Z,101710.41
2023-05-17T15:15:15.844Z,101713.75
2023-05-17T15:17:45.705Z,101714.31
2023-05-17T15:20:16.316Z,101713.16
2023-05-17T15:22:49.003Z,101711.81
2023-05-17T15:25:19.580Z,101709.22
2023-05-17T15:27:49.746Z,101711.38
2023-05-17T15:30:20.608Z,101702.69
2023-05-17T15:32:51.065Z,101703.94
2023-05-17T15:35:20.942Z,101713.66
2023-05-17T15:37:54.353Z,101712.28
2023-05-17T15:40:24.752Z,101714.69
2023-05-17T15:42:54.583Z,101708.41
2023-05-17T15:45:24.438Z,101710.47
2023-05-17T15:47:55.703Z,101711.47
2023-05-17T15:50:25.811Z,101709.84
2023-05-17T15:52:58.412Z,101713.75
2023-05-17T15:55:29.244Z,101716.31
2023-05-17T15:57:59.015Z,101721.19
2023-05-17T16:00:28.762Z,101717.81
2023-05-17T16:02:59.584Z,101716.41
2023-05-17T16:05:33.695Z,101715.16
2023-05-17T16:08:06.023Z,101715.59
2023-05-17T16:10:35.934Z,101716.84
2023-05-17T16:13:06.063Z,101718.34
2023-05-17T16:15:36.129Z,101715.91
2023-05-17T16:18:06.575Z,101717.72
2023-05-17T16:20:36.923Z,101721.47
2023-05-17T16:23:09.632Z,101722.50
2023-05-17T16:25:39.420Z,101721.22
2023-05-17T16:28:09.208Z,101712.75
2023-05-17T16:30:39.006Z,101719.50
2023-05-17T16:33:09.255Z,101726.13
2023-05-17T16:35:39.374Z,101726.56
2023-05-17T16:38:12.450Z,101728.78
2023-05-17T16:40:42.432Z,101738.81
2023-05-17T16:43:16.074Z,101738.22
2023-05-17T16:45:46.883Z,101731.44
2023-05-17T16:48:17.888Z,101732.44
2023-05-17T16:50:49.682Z,101737.78
2023-05-17T16:53:22.165Z,101739.53
2023-05-17T16:55:51.931Z,101746.41
2023-05-17T16:58:21.855Z,101746.41
2023-05-17T17:00:51.966Z,101745.75
2023-05-17T17:03:21.912Z,101738.69
2023-05-17T17:05:51.731Z,101744.81
2023-05-17T17:08:24.375Z,101746.63
2023-05-17T17:10:54.221Z,101746.13
2023-05-17T17:13:24.021Z,101748.88
2023-05-17T17:15:54.830Z,101751.47
2023-05-17T17:18:24.538Z,101748.63
2023-05-17T17:20:54.267Z,101745.94
2023-05-17T17:23:26.684Z,101742.06
2023-05-17T17:25:56.636Z,101741.22
2023-05-17T17:28:26.605Z,101745.25
2023-05-17T17:30:56.928Z,101754.28
2023-05-17T17:33:26.970Z,101754.19
2023-05-17T17:35:56.773Z,101754.56
2023-05-17T17:38:29.247Z,101749.41
2023-05-17T17:40:59.017Z,101748.63
2023-05-17T17:43:28.734Z,101759.34
2023-05-17T17:45:58.439Z,101749.22
2023-05-17T17:48:28.291Z,101755.91
2023-05-17T17:50:59.217Z,101757.63
2023-05-17T17:53:31.723Z,101764.69
2023-05-17T17:56:01.655Z,101761.91
2023-05-17T17:58:32.949Z,101765.59
2023-05-17T18:01:02.811Z,101776.56
2023-05-17T18:03:33.022Z,101766.03
2023-05-17T18:06:02.944Z,101762.72
2023-05-17T18:08:35.263Z,101767.63
2023-05-17T18:11:05.265Z,101767.47
2023-05-17T18:13:35.114Z,101764.28
2023-05-17T18:16:04.834Z,101770.13
2023-05-17T18:18:34.676Z,101763.94
2023-05-17T18:21:04.428Z,101765.16
2023-05-17T18:23:36.810Z,101772.56
2023-05-17T18:26:06.949Z,101768.13
2023-05-17T18:28:42.320Z,101772.50
2023-05-17T18:31:14.335Z,101759.47
2023-05-17T18:33:44.120Z,101766.03
2023-05-17T18:36:13.862Z,101765.34
2023-05-17T18:38:46.869Z,101767.31
2023-05-17T18:41:16.968Z,101769.41
2023-05-17T18:43:47.292Z,101767.72
2023-05-17T18:46:17.095Z,101759.97
2023-05-17T18:48:47.005Z,101764.56
2023-05-17T18:51:16.742Z,101761.22
2023-05-17T18:53:49.188Z,101769.50
2023-05-17T18:56:22.915Z,101767.81
2023-05-17T18:58:54.667Z,101767.25
2023-05-17T19:01:24.570Z,101744.47
2023-05-17T19:03:55.470Z,101736.00
2023-05-17T19:06:25.540Z,101734.50
2023-05-17T19:08:58.670Z,101742.75
2023-05-17T19:11:28.810Z,101725.38
2023-05-17T19:13:58.793Z,101720.34
2023-05-17T19:16:28.505Z,101738.31
2023-05-17T19:18:58.258Z,101711.28
2023-05-17T19:21:27.957Z,101714.13
2023-05-17T19:24:00.776Z,101694.06
2023-05-17T19:26:30.743Z,101700.59
2023-05-17T19:29:00.493Z,101692.03
2023-05-17T19:31:30.440Z,101685.28
2023-05-17T19:34:01.760Z,101666.09
2023-05-17T19:36:31.575Z,101677.75
2023-05-17T19:39:03.886Z,101676.22
2023-05-17T19:41:33.680Z,101685.28
2023-05-17T19:44:04.055Z,101676.66
2023-05-17T19:46:33.848Z,101689.22
2023-05-17T19:49:03.801Z,101671.69
2023-05-17T19:51:34.714Z,101672.88
2023-05-17T19:54:07.558Z,101665.19
2023-05-17T19:56:38.249Z,101649.50
2023-05-17T19:59:08.043Z,101658.53
2023-05-17T20:01:37.821Z,101644.53
2023-05-17T20:04:08.024Z,101663.16
2023-05-17T20:06:37.902Z,101654.50
2023-05-17T20:09:10.269Z,101628.28
2023-05-17T20:11:40.026Z,101625.84
2023-05-17T20:14:09.824Z,101610.00
2023-05-17T20:16:39.653Z,101605.06
2023-05-17T20:19:09.556Z,101633.34
2023-05-17T20:21:39.404Z,101612.31
2023-05-17T20:24:11.967Z,101611.66
2023-05-17T20:26:45.105Z,101618.88
2023-05-17T20:29:15.286Z,101611.13
2023-05-17T20:31:45.082Z,101605.09
2023-05-17T20:34:14.867Z,101592.06
2023-05-17T20:36:44.600Z,101603.59
2023-05-17T20:39:17.081Z,101618.69
2023-05-17T20:41:47.793Z,101621.50
2023-05-17T20:44:19.628Z,101627.81
2023-05-17T20:46:49.422Z,101643.78
2023-05-17T20:49:19.899Z,101638.59
2023-05-17T20:51:49.844Z,101627.38
2023-05-17T20:54:24.349Z,101618.63
2023-05-17T20:56:54.118Z,101616.19
2023-05-17T20:59:23.952Z,101596.09
2023-05-17T21:01:53.742Z,101587.44
2023-05-17T21:04:23.611Z,101567.38
2023-05-17T21:06:58.151Z,101550.81
2023-05-17T21:09:30.684Z,101544.88
2023-05-17T21:12:00.971Z,101545.06
2023-05-17T21:14:31.147Z,101529.38
2023-05-17T21:17:02.169Z,101520.75
2023-05-17T21:19:32.284Z,101514.81
2023-05-17T21:22:02.013Z,101506.19
2023-05-17T21:24:34.356Z,101497.63
2023-05-17T21:27:04.204Z,101482.84
2023-05-17T21:29:33.946Z,101470.72
2023-05-17T21:32:03.780Z,101447.16
2023-05-17T21:34:33.638Z,101428.91
2023-05-17T21:37:03.319Z,101405.41
2023-05-17T21:39:35.648Z,101396.91
2023-05-17T21:42:05.418Z,101374.97
2023-05-17T21:44:35.118Z,101358.50
2023-05-17T21:47:04.926Z,101349.91
2023-05-17T21:49:34.704Z,101349.16
2023-05-17T21:52:04.415Z,101339.63
2023-05-17T21:54:36.756Z,101318.63
2023-05-17T21:57:06.806Z,101312.63
2023-05-17T21:59:36.663Z,101310.94
2023-05-17T22:02:08.661Z,101315.38
2023-05-17T22:04:38.967Z,101332.13
2023-05-17T22:07:08.818Z,101356.72
2023-05-17T22:09:41.182Z,101357.69
2023-05-17T22:12:12.374Z,101363.88
2023-05-17T22:14:44.628Z,101338.47
2023-05-17T22:17:15.133Z,101333.25
2023-05-17T22:19:45.478Z,101319.28
2023-05-17T22:22:15.332Z,101325.56
2023-05-17T22:24:47.622Z,101331.72
2023-05-17T22:27:17.384Z,101328.28
2023-05-17T22:29:47.146Z,101309.09
2023-05-17T22:32:17.012Z,101294.34
2023-05-17T22:34:46.722Z,101287.44
2023-05-17T22:37:17.698Z,101268.28
2023-05-17T22:39:50.041Z,101245.72
2023-05-17T22:42:19.789Z,101221.28
2023-05-17T22:44:49.654Z,101192.47
2023-05-17T22:47:22.902Z,101180.38
2023-05-17T22:49:53.553Z,101163.88
2023-05-17T22:52:23.253Z,101140.38
2023-05-17T22:54:55.723Z,101125.66
2023-05-17T22:57:25.824Z,101105.63
2023-05-17T22:59:55.533Z,101085.53
2023-05-17T23:02:25.301Z,101076.91
2023-05-17T23:04:55.813Z,101052.50
2023-05-17T23:07:25.532Z,101031.59
2023-05-17T23:09:58.221Z,100613.03
2023-05-17T23:12:28.328Z,100598.13
2023-05-17T23:14:58.300Z,100583.34
2023-05-17T23:17:32.491Z,100575.59
2023-05-17T23:20:08.513Z,100558.19
2023-05-17T23:22:39.039Z,100526.84
2023-05-17T23:25:12.691Z,100513.78
2023-05-17T23:27:44.534Z,100505.25
2023-05-17T23:30:15.363Z,100488.75
2023-05-17T23:32:47.270Z,100474.03
2023-05-17T23:35:17.259Z,100455.75
2023-05-17T23:37:46.993Z,100448.00
2023-05-17T23:40:19.616Z,100424.50
2023-05-17T23:42:49.427Z,100394.81
2023-05-17T23:45:19.247Z,100390.66
2023-05-17T23:47:50.250Z,100392.47
2023-05-17T23:50:20.104Z,100369.88
2023-05-17T23:52:49.899Z,100354.28
2023-05-17T23:55:22.736Z,100341.34
2023-05-17T23:57:52.914Z,100317.84
